Time;durP1;ratioP1;P1;durP2;ratioP2;P2;SDS_P1;SDS_P2;PMS_P1;PMS_P2;Temp;Humidity;BMP_temperature;BMP_pressure;BME280_temperature;BME280_humidity;BME280_pressure;Samples;Min_cycle;Max_cycle;Signal;HPM_P1;HPM_P2
2020/12/16 00:00:12;;;;;;;27.77;8.63;;;9.40;99.90;;;;;;5019180;28;20048;-80
2020/12/16 00:02:41;;;;;;;17.83;7.88;;;9.40;99.90;;;;;;5007536;28;20046;-77
2020/12/16 00:05:10;;;;;;;15.52;7.60;;;9.30;99.90;;;;;;5026161;28;20041;-79
2020/12/16 00:07:37;;;;;;;16.30;8.15;;;9.20;99.90;;;;;;5010524;28;20049;-77
2020/12/16 00:10:09;;;;;;;14.85;7.60;;;9.30;99.90;;;;;;5003290;28;20462;-80
2020/12/16 00:12:40;;;;;;;15.82;7.70;;;9.30;99.90;;;;;;5010574;28;20112;-79
2020/12/16 00:15:06;;;;;;;15.77;7.03;;;9.20;99.90;;;;;;5007100;28;20040;-82
2020/12/16 00:17:33;;;;;;;16.02;7.32;;;9.20;99.90;;;;;;5008453;28;20058;-79
2020/12/16 00:20:00;;;;;;;13.05;6.68;;;9.10;99.90;;;;;;5004504;28;20096;-83
2020/12/16 00:22:26;;;;;;;15.05;6.78;;;9.10;99.90;;;;;;5008260;28;20245;-79
2020/12/16 00:24:52;;;;;;;15.35;7.28;;;9.10;99.90;;;;;;5006980;28;20053;-79
2020/12/16 00:27:18;;;;;;;14.25;7.03;;;9.10;99.90;;;;;;5021128;28;20045;-79
2020/12/16 00:29:44;;;;;;;14.63;7.63;;;9.10;99.90;;;;;;5011198;28;20118;-79
2020/12/16 00:32:10;;;;;;;16.75;7.72;;;9.10;99.90;;;;;;5006593;28;20117;-79
2020/12/16 00:34:35;;;;;;;18.33;8.13;;;9.10;99.90;;;;;;5009633;28;20042;-80
2020/12/16 00:37:02;;;;;;;13.80;6.88;;;9.10;99.90;;;;;;5007562;28;20172;-82
2020/12/16 00:39:27;;;;;;;13.55;6.78;;;9.10;99.90;;;;;;5011243;28;20057;-79
2020/12/16 00:41:53;;;;;;;22.13;10.43;;;9.10;99.90;;;;;;5006910;28;20068;-78
2020/12/16 00:44:19;;;;;;;23.40;9.13;;;9.20;99.90;;;;;;5012261;28;20041;-79
2020/12/16 00:46:45;;;;;;;20.65;9.77;;;9.30;99.90;;;;;;5010431;28;20049;-81
2020/12/16 00:49:10;;;;;;;23.58;11.65;;;9.30;99.90;;;;;;5007492;28;20042;-80
2020/12/16 00:51:36;;;;;;;27.85;13.43;;;9.30;99.90;;;;;;4983491;28;20100;-82
2020/12/16 00:54:02;;;;;;;29.10;13.40;;;9.30;99.90;;;;;;5007876;28;20044;-80
2020/12/16 00:56:27;;;;;;;30.85;13.07;;;9.20;99.90;;;;;;5011343;28;20168;-80
2020/12/16 00:58:53;;;;;;;24.35;12.40;;;9.20;99.90;;;;;;5007883;28;20049;-81
2020/12/16 01:01:19;;;;;;;23.33;11.38;;;9.20;99.90;;;;;;5008922;28;20112;-81
2020/12/16 01:03:45;;;;;;;26.05;12.85;;;9.40;99.90;;;;;;5007332;28;20042;-80
2020/12/16 01:06:12;;;;;;;21.65;11.90;;;9.20;99.90;;;;;;5009093;28;20034;-80
2020/12/16 01:08:39;;;;;;;21.85;11.35;;;9.20;99.90;;;;;;5027279;28;20038;-80
2020/12/16 01:11:05;;;;;;;20.83;10.60;;;9.00;99.90;;;;;;5013106;28;20519;-81
2020/12/16 01:13:31;;;;;;;18.42;10.57;;;9.10;99.90;;;;;;5011836;28;20045;-80
2020/12/16 01:15:57;;;;;;;17.00;9.77;;;9.60;99.90;;;;;;5014800;28;20038;-79
2020/12/16 01:18:23;;;;;;;16.20;8.52;;;9.20;99.90;;;;;;5007961;28;20076;-80
2020/12/16 01:20:49;;;;;;;15.60;9.23;;;9.20;99.90;;;;;;5014608;28;20034;-82
2020/12/16 01:23:14;;;;;;;17.98;9.73;;;9.20;99.90;;;;;;5010447;28;20046;-81
2020/12/16 01:25:40;;;;;;;17.70;10.13;;;9.20;99.90;;;;;;5013331;28;20038;-81
2020/12/16 01:28:06;;;;;;;18.42;10.90;;;9.20;99.90;;;;;;5006490;28;20053;-80
2020/12/16 01:30:32;;;;;;;20.63;10.35;;;9.40;99.90;;;;;;5011455;28;20057;-80
2020/12/16 01:32:58;;;;;;;15.63;9.05;;;9.30;99.90;;;;;;5013200;28;20108;-82
2020/12/16 01:35:25;;;;;;;18.48;10.02;;;9.30;99.90;;;;;;5014226;28;20056;-80
2020/12/16 01:37:53;;;;;;;20.50;11.38;;;9.30;99.90;;;;;;5011219;28;20556;-78
2020/12/16 01:40:19;;;;;;;15.75;9.25;;;9.30;99.90;;;;;;5011462;28;20046;-81
2020/12/16 01:42:45;;;;;;;16.70;9.40;;;9.20;99.90;;;;;;5004829;28;20519;-80
2020/12/16 01:45:18;;;;;;;17.77;9.48;;;9.20;99.90;;;;;;5011403;28;20120;-80
2020/12/16 01:47:44;;;;;;;16.83;9.30;;;9.20;99.90;;;;;;5010841;28;20037;-79
2020/12/16 01:50:11;;;;;;;16.98;9.15;;;9.20;99.90;;;;;;5002636;28;20041;-79
2020/12/16 01:52:39;;;;;;;14.48;9.02;;;9.20;99.90;;;;;;5004693;28;20421;-78
2020/12/16 01:55:07;;;;;;;18.10;9.20;;;9.20;99.90;;;;;;5001687;28;20047;-82
2020/12/16 01:57:38;;;;;;;18.48;9.95;;;9.20;99.90;;;;;;5007380;28;20066;-80
2020/12/16 02:00:12;;;;;;;15.68;8.93;;;9.20;99.90;;;;;;5012632;28;20136;-80
2020/12/16 02:02:43;;;;;;;18.88;9.63;;;9.20;99.90;;;;;;5008283;28;20155;-82
2020/12/16 02:05:12;;;;;;;17.58;9.05;;;9.60;99.90;;;;;;5007139;28;20498;-78
2020/12/16 02:07:39;;;;;;;14.45;7.70;;;9.20;99.90;;;;;;4998934;28;20499;-80
2020/12/16 02:10:05;;;;;;;15.82;8.18;;;9.30;99.90;;;;;;5008319;28;20038;-81
2020/12/16 02:12:35;;;;;;;20.38;9.85;;;9.20;99.90;;;;;;5011042;28;20033;-82
2020/12/16 02:15:02;;;;;;;17.88;9.25;;;9.20;99.90;;;;;;5014167;28;20030;-79
2020/12/16 02:17:28;;;;;;;18.70;9.25;;;9.20;99.90;;;;;;5024406;28;20030;-78
2020/12/16 02:19:56;;;;;;;17.15;8.95;;;9.20;99.90;;;;;;5008456;28;20034;-79
2020/12/16 02:22:23;;;;;;;19.17;9.05;;;9.10;99.90;;;;;;5011405;28;20058;-82
2020/12/16 02:25:12;;;;;;;16.63;8.70;;;9.30;99.90;;;;;;5010533;28;20482;-79
2020/12/16 02:27:41;;;;;;;18.85;8.85;;;9.10;99.90;;;;;;5011648;28;20045;-81
2020/12/16 02:30:10;;;;;;;17.60;9.30;;;9.70;99.90;;;;;;5004751;28;20029;-79
2020/12/16 02:32:36;;;;;;;19.35;9.13;;;9.10;99.90;;;;;;5002216;28;20053;-80
2020/12/16 02:35:02;;;;;;;17.73;8.52;;;9.10;99.90;;;;;;5006464;28;20076;-78
2020/12/16 02:37:28;;;;;;;19.40;8.88;;;9.10;99.90;;;;;;5003939;28;20026;-79
2020/12/16 02:39:54;;;;;;;14.15;7.72;;;9.10;99.90;;;;;;5011537;28;20092;-79
2020/12/16 02:42:30;;;;;;;14.10;7.05;;;9.10;99.90;;;;;;5006641;28;20042;-79
2020/12/16 02:44:57;;;;;;;14.57;7.68;;;9.10;99.90;;;;;;5010641;28;20053;-79
2020/12/16 02:47:23;;;;;;;14.77;7.90;;;9.10;99.90;;;;;;5000933;28;20485;-80
2020/12/16 02:49:49;;;;;;;14.73;7.40;;;9.10;99.90;;;;;;5011194;28;20088;-82
2020/12/16 02:52:15;;;;;;;14.63;7.75;;;9.20;99.90;;;;;;5007257;28;20450;-79
2020/12/16 02:54:41;;;;;;;10.10;5.38;;;9.10;99.90;;;;;;5010801;28;20042;-79
2020/12/16 02:57:07;;;;;;;9.68;5.50;;;9.10;99.90;;;;;;5007835;28;20364;-79
2020/12/16 02:59:32;;;;;;;11.93;6.03;;;9.10;99.90;;;;;;5012028;28;20348;-78
2020/12/16 03:01:58;;;;;;;11.65;6.43;;;9.10;99.90;;;;;;5008915;28;20038;-79
2020/12/16 03:04:25;;;;;;;10.15;5.68;;;9.10;99.90;;;;;;5004303;28;20037;-80
2020/12/16 03:06:53;;;;;;;10.57;5.60;;;9.20;99.90;;;;;;5004985;28;20030;-81
2020/12/16 03:09:21;;;;;;;9.68;5.57;;;9.20;99.90;;;;;;5000247;28;20046;-80
2020/12/16 03:11:51;;;;;;;8.63;4.50;;;9.20;99.90;;;;;;5004118;28;20507;-79
2020/12/16 03:14:17;;;;;;;10.30;5.93;;;9.20;99.90;;;;;;5001519;28;20033;-77
2020/12/16 03:16:43;;;;;;;14.30;7.55;;;9.20;99.90;;;;;;5003087;28;20053;-80
2020/12/16 03:19:09;;;;;;;11.30;6.18;;;9.20;99.90;;;;;;5009563;28;20045;-79
2020/12/16 03:21:35;;;;;;;12.32;6.95;;;10.70;99.90;;;;;;5011272;28;20429;-77
2020/12/16 03:24:01;;;;;;;10.27;6.13;;;9.20;99.90;;;;;;5008687;28;20280;-79
2020/12/16 03:26:26;;;;;;;12.88;6.80;;;9.30;99.90;;;;;;5012163;28;20104;-80
2020/12/16 03:28:52;;;;;;;11.95;6.45;;;9.30;99.90;;;;;;5007155;28;20368;-79
2020/12/16 03:31:19;;;;;;;8.18;4.68;;;;;;;;;;5011410;28;20034;-79
2020/12/16 03:33:46;;;;;;;9.70;5.28;;;9.40;99.90;;;;;;5025724;28;20045;-80
2020/12/16 03:36:20;;;;;;;11.38;5.70;;;9.40;99.90;;;;;;5009043;28;20041;-80
2020/12/16 03:38:47;;;;;;;9.32;5.78;;;9.30;99.90;;;;;;5010992;28;20371;-80
2020/12/16 03:41:17;;;;;;;10.07;5.95;;;9.30;99.90;;;;;;5004666;28;20065;-80
2020/12/16 03:43:44;;;;;;;9.52;5.60;;;9.30;99.90;;;;;;5003400;28;20034;-80
2020/12/16 03:46:11;;;;;;;9.23;5.60;;;9.30;99.90;;;;;;5009478;28;20108;-80
2020/12/16 03:48:38;;;;;;;10.25;5.65;;;9.30;99.90;;;;;;5003863;28;20514;-78
2020/12/16 03:51:09;;;;;;;9.23;5.57;;;9.30;99.90;;;;;;5009295;28;20033;-79
2020/12/16 03:53:37;;;;;;;10.95;5.63;;;9.30;99.90;;;;;;5010225;28;20057;-79
2020/12/16 03:56:15;;;;;;;11.25;6.45;;;9.30;99.90;;;;;;5007150;28;20042;-80
2020/12/16 03:58:44;;;;;;;11.10;6.40;;;9.30;99.90;;;;;;5009219;28;20125;-79
2020/12/16 04:01:11;;;;;;;12.27;6.32;;;9.30;99.90;;;;;;5024284;28;20521;-79
2020/12/16 04:03:37;;;;;;;12.20;7.00;;;9.30;99.90;;;;;;5006888;28;20038;-80
2020/12/16 04:06:06;;;;;;;13.00;7.57;;;9.30;99.90;;;;;;5010173;28;20041;-81
2020/12/16 04:08:34;;;;;;;13.05;6.93;;;9.30;99.90;;;;;;5003858;28;20042;-77
2020/12/16 04:11:00;;;;;;;13.75;7.55;;;9.30;99.90;;;;;;5006510;28;20045;-79
2020/12/16 04:13:25;;;;;;;11.40;6.93;;;9.30;99.90;;;;;;5011397;28;20034;-80
2020/12/16 04:15:51;;;;;;;12.10;7.30;;;9.30;99.90;;;;;;5009849;28;20034;-78
2020/12/16 04:18:17;;;;;;;11.48;6.72;;;9.30;99.90;;;;;;5013189;28;20044;-78
2020/12/16 04:20:42;;;;;;;12.93;7.22;;;9.30;99.90;;;;;;5004629;28;20063;-80
2020/12/16 04:23:08;;;;;;;12.95;7.57;;;9.30;99.90;;;;;;5004236;28;20111;-78
2020/12/16 04:25:34;;;;;;;13.48;7.35;;;9.30;99.90;;;;;;5001559;28;20046;-79
2020/12/16 04:28:00;;;;;;;13.25;7.97;;;9.30;99.90;;;;;;5001936;28;20542;-79
2020/12/16 04:30:28;;;;;;;13.98;7.90;;;9.40;99.90;;;;;;5000526;28;20026;-80
2020/12/16 04:32:59;;;;;;;13.55;7.63;;;9.30;99.90;;;;;;5000875;28;20061;-79
2020/12/16 04:35:25;;;;;;;;;;;9.50;99.90;;;;;;5003759;28;20124;-79
2020/12/16 04:37:52;;;;;;;17.67;7.68;;;9.70;99.90;;;;;;5010473;28;19913;-79
2020/12/16 04:40:18;;;;;;;17.08;8.27;;;9.30;99.90;;;;;;5008142;28;20124;-79
2020/12/16 04:42:44;;;;;;;14.00;7.43;;;9.40;99.90;;;;;;5008406;28;20049;-80
2020/12/16 04:45:11;;;;;;;13.45;7.68;;;9.30;99.90;;;;;;5010803;28;20112;-79
2020/12/16 04:47:37;;;;;;;13.65;7.95;;;9.30;99.90;;;;;;5007442;28;20137;-80
2020/12/16 04:50:06;;;;;;;13.20;7.65;;;9.30;99.90;;;;;;5007245;28;20081;-77
2020/12/16 04:52:34;;;;;;;15.50;8.75;;;9.40;99.90;;;;;;5003566;28;20040;-81
2020/12/16 04:55:00;;;;;;;14.98;8.00;;;9.30;99.90;;;;;;5014773;28;20036;-80
2020/12/16 04:57:26;;;;;;;14.35;8.60;;;9.30;99.90;;;;;;5006952;28;20046;-80
2020/12/16 04:59:55;;;;;;;14.65;7.80;;;9.30;99.90;;;;;;5014719;28;20137;-80
2020/12/16 05:02:21;;;;;;;13.30;7.70;;;9.40;99.90;;;;;;5012178;28;20037;-80
2020/12/16 05:04:46;;;;;;;19.13;9.15;;;9.40;99.90;;;;;;5015040;28;20064;-79
2020/12/16 05:07:29;;;;;;;14.40;8.48;;;9.40;99.90;;;;;;5013564;28;20483;-78
2020/12/16 05:09:55;;;;;;;13.55;8.18;;;9.40;99.90;;;;;;5013035;28;20042;-78
2020/12/16 05:12:21;;;;;;;15.02;8.05;;;9.40;99.90;;;;;;5010473;28;20041;-78
2020/12/16 05:14:47;;;;;;;12.82;7.40;;;9.40;99.90;;;;;;5003358;28;20034;-81
2020/12/16 05:17:13;;;;;;;9.90;6.53;;;9.40;99.90;;;;;;5001191;28;20101;-79
2020/12/16 05:19:41;;;;;;;11.90;6.85;;;9.40;99.90;;;;;;5006892;28;20037;-78
2020/12/16 05:22:19;;;;;;;11.30;6.70;;;9.40;99.90;;;;;;5007259;28;20057;-78
2020/12/16 05:24:46;;;;;;;11.68;6.28;;;9.40;99.90;;;;;;5006309;28;20038;-79
2020/12/16 05:27:23;;;;;;;10.55;6.60;;;9.40;99.90;;;;;;5005910;28;20497;-79
2020/12/16 05:29:51;;;;;;;12.40;6.85;;;9.40;99.90;;;;;;5007201;28;20046;-79
2020/12/16 05:32:28;;;;;;;11.38;6.30;;;9.40;99.90;;;;;;5009106;28;20038;-77
2020/12/16 05:34:56;;;;;;;11.02;6.53;;;9.40;99.90;;;;;;5006748;28;20550;-80
2020/12/16 05:37:29;;;;;;;10.93;5.95;;;9.40;99.90;;;;;;5008161;28;20045;-79
2020/12/16 05:40:11;;;;;;;10.48;5.68;;;9.40;99.90;;;;;;5006244;28;20038;-80
2020/12/16 05:42:39;;;;;;;11.02;5.38;;;9.40;99.90;;;;;;5011618;28;20232;-80
2020/12/16 05:45:13;;;;;;;9.52;5.38;;;9.40;99.90;;;;;;5010321;28;20164;-80
2020/12/16 05:47:43;;;;;;;10.27;5.00;;;9.40;99.90;;;;;;5003060;28;20140;-81
2020/12/16 05:50:17;;;;;;;9.38;5.80;;;9.50;99.90;;;;;;5007061;28;20106;-81
2020/12/16 05:52:44;;;;;;;10.18;5.65;;;9.50;99.90;;;;;;5009293;28;20037;-79
2020/12/16 05:55:10;;;;;;;11.38;6.18;;;9.50;99.90;;;;;;5009897;28;20065;-79
2020/12/16 05:57:36;;;;;;;10.63;5.50;;;9.50;99.90;;;;;;5011424;28;20107;-78
2020/12/16 06:00:14;;;;;;;9.52;5.78;;;9.50;99.90;;;;;;5005069;28;20558;-79
2020/12/16 06:02:43;;;;;;;11.60;5.68;;;9.50;99.90;;;;;;5009977;28;20077;-79
2020/12/16 06:05:11;;;;;;;9.18;5.32;;;9.50;99.90;;;;;;5008373;28;20085;-79
2020/12/16 06:07:39;;;;;;;9.82;5.70;;;9.50;99.90;;;;;;5001905;28;20388;-79
2020/12/16 06:10:06;;;;;;;9.52;5.40;;;9.50;99.90;;;;;;5007940;28;20056;-79
2020/12/16 06:12:31;;;;;;;9.20;5.32;;;9.50;99.90;;;;;;5010075;28;20027;-79
2020/12/16 06:15:17;;;;;;;8.48;5.25;;;9.50;99.90;;;;;;5026327;28;20328;-80
2020/12/16 06:17:48;;;;;;;16.55;6.88;;;9.60;99.90;;;;;;5008339;28;20041;-79
2020/12/16 06:20:15;;;;;;;14.52;8.10;;;9.50;99.90;;;;;;5012234;28;20114;-80
2020/12/16 06:22:50;;;;;;;9.93;5.55;;;9.50;99.90;;;;;;5009503;28;20034;-79
2020/12/16 06:25:17;;;;;;;9.23;5.38;;;9.50;99.90;;;;;;5006992;28;20048;-80
2020/12/16 06:27:48;;;;;;;9.52;5.78;;;9.50;99.90;;;;;;5006367;28;20041;-78
2020/12/16 06:30:28;;;;;;;7.25;4.95;;;9.50;99.90;;;;;;5007713;28;20034;-80
2020/12/16 06:33:12;;;;;;;9.30;6.03;;;9.50;99.90;;;;;;5006836;28;20168;-79
2020/12/16 06:35:39;;;;;;;10.25;6.20;;;;;;;;;;5009012;28;20026;-79
2020/12/16 06:38:23;;;;;;;9.48;6.38;;;9.60;99.90;;;;;;5008868;28;20022;-83
2020/12/16 06:40:52;;;;;;;9.88;6.40;;;9.70;99.90;;;;;;5003497;28;20052;-81
2020/12/16 06:43:33;;;;;;;10.38;6.00;;;9.60;99.90;;;;;;5011080;28;20145;-81
2020/12/16 06:46:00;;;;;;;9.35;6.40;;;9.50;99.90;;;;;;5012593;28;20064;-81
2020/12/16 06:48:36;;;;;;;9.82;6.13;;;9.50;99.90;;;;;;5009653;28;20033;-80
2020/12/16 06:51:22;;;;;;;11.90;6.35;;;9.50;99.90;;;;;;5003343;28;20398;-81
2020/12/16 06:54:02;;;;;;;10.65;6.63;;;9.50;99.90;;;;;;5004330;28;20076;-79
2020/12/16 06:56:29;;;;;;;11.27;6.43;;;9.50;99.90;;;;;;5004475;28;20084;-83
2020/12/16 06:58:55;;;;;;;11.60;6.60;;;9.60;99.90;;;;;;5004870;28;20050;-80
2020/12/16 07:01:21;;;;;;;10.18;6.30;;;;;;;;;;5005792;28;20530;-80
2020/12/16 07:03:47;;;;;;;11.45;7.05;;;9.50;99.90;;;;;;5021080;28;20120;-80
2020/12/16 07:06:28;;;;;;;11.52;7.85;;;9.50;99.90;;;;;;5008777;28;20046;-79
2020/12/16 07:09:12;;;;;;;11.40;7.55;;;9.50;99.90;;;;;;5026716;28;20116;-79
2020/12/16 07:11:39;;;;;;;13.65;8.60;;;9.50;99.90;;;;;;5028152;28;20525;-80
2020/12/16 07:14:19;;;;;;;11.73;7.75;;;9.50;99.90;;;;;;5009996;28;20030;-83
2020/12/16 07:16:46;;;;;;;12.35;7.97;;;9.50;99.90;;;;;;5003266;28;20494;-80
2020/12/16 07:19:15;;;;;;;11.18;7.90;;;9.50;99.90;;;;;;4999609;28;20026;-81
2020/12/16 07:21:44;;;;;;;12.73;8.90;;;9.50;99.90;;;;;;4995191;28;20566;-80
2020/12/16 07:24:15;;;;;;;12.45;8.40;;;9.50;99.90;;;;;;4999051;28;20060;-81
2020/12/16 07:26:43;;;;;;;11.63;7.97;;;9.60;99.90;;;;;;5007669;28;20232;-80
2020/12/16 07:29:18;;;;;;;12.40;8.32;;;9.60;99.90;;;;;;5004301;28;20037;-83
2020/12/16 07:32:01;;;;;;;13.90;8.95;;;9.70;99.90;;;;;;5006719;28;20042;-81
2020/12/16 07:34:28;;;;;;;13.77;8.45;;;9.70;99.90;;;;;;5011669;28;20042;-80
2020/12/16 07:37:00;;;;;;;12.70;8.57;;;9.70;99.90;;;;;;5009533;28;20038;-81
2020/12/16 07:39:27;;;;;;;12.02;8.07;;;9.70;99.90;;;;;;5003997;28;20046;-78
2020/12/16 07:41:58;;;;;;;12.18;8.18;;;9.70;99.90;;;;;;5008727;28;20487;-79
2020/12/16 07:44:24;;;;;;;13.60;7.97;;;9.60;99.90;;;;;;5021168;28;20088;-80
2020/12/16 07:46:51;;;;;;;15.77;8.52;;;9.70;99.90;;;;;;5010396;28;20034;-79
2020/12/16 07:49:18;;;;;;;15.25;9.27;;;9.70;99.90;;;;;;5010079;28;20057;-78
2020/12/16 07:51:44;;;;;;;13.73;8.95;;;9.60;99.90;;;;;;5005654;28;20089;-81
2020/12/16 07:54:10;;;;;;;12.52;8.77;;;9.70;99.90;;;;;;5005461;28;20042;-79
2020/12/16 07:56:35;;;;;;;13.82;8.70;;;9.70;99.90;;;;;;5001202;28;20112;-79
2020/12/16 07:59:15;;;;;;;12.43;8.55;;;9.70;99.90;;;;;;5001440;28;20042;-80
2020/12/16 08:01:40;;;;;;;13.57;9.43;;;9.60;99.90;;;;;;5007809;28;20037;-82
2020/12/16 08:04:06;;;;;;;13.27;9.23;;;9.80;99.90;;;;;;4992445;28;20039;-82
2020/12/16 08:06:33;;;;;;;12.88;9.80;;;9.60;99.90;;;;;;5007213;28;20034;-80
2020/12/16 08:08:59;;;;;;;16.52;11.20;;;9.60;99.90;;;;;;5000805;28;20046;-78
2020/12/16 08:11:27;;;;;;;14.68;10.32;;;9.60;99.90;;;;;;4997667;28;20407;-79
2020/12/16 08:14:05;;;;;;;12.75;9.85;;;9.60;99.90;;;;;;5007585;28;20080;-80
2020/12/16 08:16:31;;;;;;;16.63;9.68;;;;;;;;;;5006520;28;20109;-79
2020/12/16 08:18:58;;;;;;;14.80;10.50;;;9.60;99.90;;;;;;5018573;28;20045;-81
2020/12/16 08:21:25;;;;;;;12.52;8.93;;;9.70;99.90;;;;;;5012566;28;20038;-78
2020/12/16 08:23:52;;;;;;;17.02;10.50;;;9.70;99.90;;;;;;5007914;28;20045;-79
2020/12/16 08:26:20;;;;;;;12.57;9.35;;;9.70;99.90;;;;;;5008127;28;20461;-78
2020/12/16 08:28:46;;;;;;;13.95;9.80;;;9.70;99.90;;;;;;5000359;28;20053;-79
2020/12/16 08:31:19;;;;;;;12.48;9.10;;;9.70;99.90;;;;;;5011546;28;20425;-78
2020/12/16 08:33:49;;;;;;;11.95;9.02;;;9.50;99.90;;;;;;5008790;28;20030;-79
2020/12/16 08:36:19;;;;;;;12.82;9.43;;;9.70;99.90;;;;;;5011284;28;20034;-79
2020/12/16 08:38:47;;;;;;;13.77;9.93;;;9.80;99.90;;;;;;4995350;28;20043;-79
2020/12/16 08:41:21;;;;;;;12.18;9.27;;;9.80;99.90;;;;;;5008096;28;20066;-79
2020/12/16 08:43:47;;;;;;;12.85;9.52;;;9.80;99.90;;;;;;5018037;28;20038;-78
2020/12/16 08:46:18;;;;;;;13.25;9.82;;;9.80;99.90;;;;;;5008013;28;20032;-79
2020/12/16 08:48:45;;;;;;;16.77;9.80;;;9.90;99.90;;;;;;5006163;28;20042;-78
2020/12/16 08:51:21;;;;;;;12.68;8.70;;;10.00;99.90;;;;;;5009993;28;20029;-82
2020/12/16 08:53:52;;;;;;;12.07;9.38;;;9.90;99.90;;;;;;5006872;28;20518;-79
2020/12/16 08:56:28;;;;;;;13.10;9.43;;;10.00;99.90;;;;;;4998721;28;20042;-79
2020/12/16 08:59:13;;;;;;;11.32;9.02;;;10.00;99.90;;;;;;5006964;28;20109;-80
2020/12/16 09:01:42;;;;;;;12.57;9.90;;;10.00;99.90;;;;;;5008565;28;20072;-79
2020/12/16 09:04:11;;;;;;;13.40;10.07;;;9.90;99.90;;;;;;5011579;28;20102;-84
2020/12/16 09:06:37;;;;;;;11.73;9.18;;;9.90;99.90;;;;;;5010189;28;20046;-81
2020/12/16 09:09:21;;;;;;;11.95;9.30;;;10.00;99.90;;;;;;5011922;28;20066;-81
2020/12/16 09:11:48;;;;;;;14.13;9.55;;;10.00;99.90;;;;;;5025641;28;20053;-82
2020/12/16 09:14:14;;;;;;;12.07;9.27;;;10.00;99.90;;;;;;5013091;28;20141;-85
2020/12/16 09:16:40;;;;;;;11.30;8.48;;;10.00;99.90;;;;;;5008433;28;20079;-78
2020/12/16 09:19:05;;;;;;;13.50;9.40;;;10.20;99.90;;;;;;5009479;28;20101;-80
2020/12/16 09:21:35;;;;;;;10.60;8.57;;;10.20;99.90;;;;;;5009697;28;20088;-81
2020/12/16 09:24:05;;;;;;;11.35;8.82;;;10.30;99.90;;;;;;5010244;28;20049;-79
2020/12/16 09:26:55;;;;;;;10.20;7.90;;;10.30;99.90;;;;;;5013690;28;20041;-79
2020/12/16 09:29:20;;;;;;;11.75;8.40;;;10.30;99.90;;;;;;5011932;28;20183;-80
2020/12/16 09:31:47;;;;;;;12.10;7.93;;;10.40;99.90;;;;;;5025511;28;20542;-80
2020/12/16 09:34:14;;;;;;;10.65;7.78;;;10.50;99.90;;;;;;5009613;28;20173;-79
2020/12/16 09:36:42;;;;;;;10.02;7.53;;;10.70;99.90;;;;;;5013254;28;20038;-80
2020/12/16 09:39:09;;;;;;;10.00;7.63;;;10.40;99.90;;;;;;4993915;28;20038;-79
2020/12/16 09:41:49;;;;;;;12.65;7.88;;;10.80;99.90;;;;;;5000600;28;20034;-79
2020/12/16 09:44:25;;;;;;;11.68;8.15;;;10.40;99.90;;;;;;5011954;28;20053;-79
2020/12/16 09:46:50;;;;;;;10.00;7.47;;;10.50;99.90;;;;;;5008648;28;20038;-82
2020/12/16 09:49:19;;;;;;;9.77;7.63;;;10.50;99.90;;;;;;5007642;28;20526;-80
2020/12/16 09:51:45;;;;;;;9.80;7.88;;;10.60;99.90;;;;;;5000896;28;20028;-80
2020/12/16 09:54:26;;;;;;;10.45;7.10;;;10.70;99.90;;;;;;5001820;28;20743;-83
2020/12/16 09:56:52;;;;;;;9.05;6.88;;;10.60;99.90;;;;;;5017578;28;20034;-79
2020/12/16 09:59:19;;;;;;;10.10;7.13;;;10.70;99.90;;;;;;5000394;28;20395;-82
2020/12/16 10:01:47;;;;;;;10.35;7.95;;;10.70;99.90;;;;;;5016878;28;20065;-79
2020/12/16 10:04:13;;;;;;;11.27;7.68;;;10.70;99.90;;;;;;5024675;28;20048;-79
2020/12/16 10:06:48;;;;;;;9.52;7.18;;;10.70;99.90;;;;;;4993583;28;20046;-82
2020/12/16 10:09:27;;;;;;;13.52;7.10;;;10.70;99.90;;;;;;5024497;28;20046;-81
2020/12/16 10:11:53;;;;;;;11.32;7.72;;;10.80;99.90;;;;;;5014752;28;20499;-81
2020/12/16 10:14:18;;;;;;;9.52;7.15;;;10.70;99.90;;;;;;5006675;28;20049;-83
2020/12/16 10:16:46;;;;;;;9.98;6.90;;;10.80;99.90;;;;;;5005880;28;20228;-81
2020/12/16 10:19:12;;;;;;;9.98;7.68;;;10.90;99.90;;;;;;5022132;28;20050;-80
2020/12/16 10:21:40;;;;;;;9.75;7.25;;;10.90;99.90;;;;;;5011263;28;20372;-82
2020/12/16 10:24:05;;;;;;;11.15;7.93;;;10.90;99.90;;;;;;5015233;28;20042;-79
2020/12/16 10:26:31;;;;;;;10.10;6.95;;;11.00;99.90;;;;;;5006530;28;20065;-80
2020/12/16 10:28:58;;;;;;;11.10;8.05;;;11.00;99.90;;;;;;5011897;28;20092;-81
2020/12/16 10:31:24;;;;;;;10.57;7.38;;;11.00;99.90;;;;;;5009758;28;20044;-78
2020/12/16 10:33:49;;;;;;;10.40;7.35;;;11.00;99.90;;;;;;5007149;28;20034;-80
2020/12/16 10:36:16;;;;;;;9.10;7.13;;;11.00;99.90;;;;;;5009165;28;20559;-79
2020/12/16 10:38:45;;;;;;;9.73;7.03;;;12.20;99.90;;;;;;5012965;28;20538;-81
2020/12/16 10:41:12;;;;;;;10.70;7.50;;;11.10;99.90;;;;;;4991691;28;20715;-82
2020/12/16 10:43:38;;;;;;;10.02;6.57;;;11.10;99.90;;;;;;5005454;28;20125;-81
2020/12/16 10:46:09;;;;;;;9.93;7.15;;;11.20;99.90;;;;;;5007843;28;20103;-81
2020/12/16 10:48:35;;;;;;;10.43;6.97;;;11.20;99.90;;;;;;5012078;28;20053;-80
2020/12/16 10:51:01;;;;;;;10.95;6.72;;;14.80;99.90;;;;;;5014542;28;20030;-83
2020/12/16 10:53:27;;;;;;;16.10;7.90;;;11.30;99.90;;;;;;5016512;28;20049;-81
2020/12/16 10:55:54;;;;;;;10.77;7.13;;;12.10;99.90;;;;;;5011057;28;20034;-80
2020/12/16 10:58:20;;;;;;;12.05;7.70;;;11.40;99.90;;;;;;4999172;28;20046;-82
2020/12/16 11:00:45;;;;;;;11.23;7.22;;;12.50;99.90;;;;;;5013103;28;20675;-82
2020/12/16 11:03:11;;;;;;;10.93;7.45;;;11.90;99.90;;;;;;5029053;28;20099;-78
2020/12/16 11:05:37;;;;;;;10.25;7.40;;;11.40;99.90;;;;;;5017095;28;20060;-80
2020/12/16 11:08:03;;;;;;;9.77;6.50;;;11.50;99.90;;;;;;5001866;28;20037;-78
2020/12/16 11:10:28;;;;;;;9.63;6.07;;;11.50;99.90;;;;;;5018287;28;20037;-80
2020/12/16 11:12:54;;;;;;;10.60;6.53;;;11.50;99.90;;;;;;5020017;28;20025;-80
2020/12/16 11:15:20;;;;;;;8.48;6.43;;;11.60;99.90;;;;;;5010644;28;20048;-81
2020/12/16 11:17:46;;;;;;;8.15;6.15;;;11.70;99.90;;;;;;4980476;28;20045;-78
2020/12/16 11:20:13;;;;;;;9.27;6.18;;;11.50;99.90;;;;;;5013499;28;20034;-80
2020/12/16 11:22:39;;;;;;;10.55;6.25;;;11.60;99.90;;;;;;5014974;28;20025;-81
2020/12/16 11:25:05;;;;;;;8.75;6.70;;;11.60;99.90;;;;;;5013471;28;20105;-81
2020/12/16 11:27:31;;;;;;;6.60;5.40;;;11.60;99.90;;;;;;5009860;28;20069;-80
2020/12/16 11:29:57;;;;;;;7.43;6.00;;;13.10;99.90;;;;;;5018178;28;20025;-83
2020/12/16 11:32:42;;;;;;;7.70;5.90;;;11.60;99.90;;;;;;5013064;28;20045;-80
2020/12/16 11:35:08;;;;;;;8.60;5.75;;;11.60;99.90;;;;;;5008798;28;20040;-80
2020/12/16 11:37:38;;;;;;;12.75;9.02;;;11.50;99.90;;;;;;5012541;28;20030;-80
2020/12/16 11:40:04;;;;;;;10.57;6.47;;;11.60;99.90;;;;;;5024143;28;20026;-81
2020/12/16 11:42:29;;;;;;;7.90;6.20;;;11.60;99.90;;;;;;5012709;28;20042;-79
2020/12/16 11:44:55;;;;;;;8.65;6.53;;;11.60;99.90;;;;;;5009415;28;20129;-80
2020/12/16 11:47:21;;;;;;;11.48;6.80;;;12.50;99.90;;;;;;5012944;28;20602;-79
2020/12/16 11:49:47;;;;;;;7.22;5.78;;;11.80;99.90;;;;;;5034159;28;20060;-82
2020/12/16 11:52:14;;;;;;;8.35;6.07;;;11.70;99.90;;;;;;5010166;28;20057;-81
2020/12/16 11:54:40;;;;;;;8.40;6.20;;;11.70;99.90;;;;;;5012118;28;20034;-79
2020/12/16 11:57:08;;;;;;;9.55;6.60;;;11.70;99.90;;;;;;4998278;28;20032;-79
2020/12/16 11:59:34;;;;;;;11.25;6.25;;;11.80;99.90;;;;;;5001920;28;20499;-78
2020/12/16 12:02:02;;;;;;;9.60;6.40;;;11.60;99.90;;;;;;5007020;28;20038;-81
2020/12/16 12:04:28;;;;;;;7.93;5.88;;;11.70;99.90;;;;;;5010202;28;20534;-80
2020/12/16 12:06:55;;;;;;;9.85;6.72;;;11.70;99.90;;;;;;5008651;28;20042;-78
2020/12/16 12:09:24;;;;;;;9.85;6.78;;;11.70;99.90;;;;;;5007006;28;20034;-79
2020/12/16 12:11:51;;;;;;;9.73;7.18;;;11.70;99.90;;;;;;5021971;28;20026;-77
2020/12/16 12:14:18;;;;;;;8.27;6.00;;;11.70;99.90;;;;;;5008848;28;20476;-78
2020/12/16 12:16:45;;;;;;;10.32;6.28;;;11.70;99.90;;;;;;5006020;28;20042;-78
2020/12/16 12:19:11;;;;;;;9.38;6.32;;;11.70;99.90;;;;;;4999207;28;20522;-81
2020/12/16 12:21:37;;;;;;;9.43;6.57;;;11.70;99.90;;;;;;5008580;28;20042;-81
2020/12/16 12:24:02;;;;;;;8.68;5.53;;;11.80;99.90;;;;;;4995487;28;20053;-79
2020/12/16 12:26:28;;;;;;;9.82;6.38;;;11.80;99.90;;;;;;4994190;28;20042;-86
2020/12/16 12:28:54;;;;;;;8.73;5.85;;;12.90;99.90;;;;;;5029103;28;20041;-78
2020/12/16 12:31:19;;;;;;;8.50;6.03;;;11.80;99.90;;;;;;5002770;28;20053;-80
2020/12/16 12:33:45;;;;;;;8.35;5.63;;;11.80;99.90;;;;;;5008211;28;20033;-78
2020/12/16 12:36:11;;;;;;;8.48;6.20;;;11.80;99.90;;;;;;4999802;28;20056;-78
2020/12/16 12:38:37;;;;;;;7.78;5.25;;;11.90;99.90;;;;;;5028332;28;20069;-79
2020/12/16 12:41:02;;;;;;;7.95;5.25;;;13.20;99.90;;;;;;5011692;28;20074;-78
2020/12/16 12:43:28;;;;;;;8.40;5.57;;;;;;;;;;5008236;28;20041;-79
2020/12/16 12:45:54;;;;;;;8.15;5.40;;;12.00;99.90;;;;;;5015919;28;20061;-79
2020/12/16 12:48:20;;;;;;;7.93;5.70;;;12.00;99.90;;;;;;4991797;28;20158;-79
2020/12/16 12:50:46;;;;;;;7.60;5.18;;;14.80;99.90;;;;;;4985154;28;20042;-78
2020/12/16 12:53:12;;;;;;;6.68;5.00;;;;;;;;;;4998686;28;20092;-78